sensor_id;sensor_type;location;lat;lon;timestamp;P1;durP1;ratioP1;P2;durP2;ratioP2
37205;SDS011;23099;42.636;23.198;2023-04-25T00:02:19;25.15;;;10.05;;
37205;SDS011;23099;42.636;23.198;2023-04-25T00:04:47;18.00;;;6.90;;
37205;SDS011;23099;42.636;23.198;2023-04-25T00:07:16;16.30;;;5.68;;
37205;SDS011;23099;42.636;23.198;2023-04-25T00:09:42;12.25;;;4.80;;
37205;SDS011;23099;42.636;23.198;2023-04-25T00:12:09;12.23;;;5.50;;
37205;SDS011;23099;42.636;23.198;2023-04-25T00:14:36;15.90;;;5.45;;
37205;SDS011;23099;42.636;23.198;2023-04-25T00:17:03;14.05;;;5.28;;
37205;SDS011;23099;42.636;23.198;2023-04-25T00:19:29;11.25;;;4.10;;
37205;SDS011;23099;42.636;23.198;2023-04-25T00:21:57;11.60;;;4.30;;
37205;SDS011;23099;42.636;23.198;2023-04-25T00:24:25;9.02;;;3.47;;
37205;SDS011;23099;42.636;23.198;2023-04-25T00:26:52;7.38;;;3.60;;
37205;SDS011;23099;42.636;23.198;2023-04-25T00:29:19;5.85;;;3.00;;
37205;SDS011;23099;42.636;23.198;2023-04-25T00:31:45;7.75;;;3.55;;
37205;SDS011;23099;42.636;23.198;2023-04-25T00:34:12;7.85;;;3.83;;
37205;SDS011;23099;42.636;23.198;2023-04-25T00:36:39;15.38;;;4.95;;
37205;SDS011;23099;42.636;23.198;2023-04-25T00:39:05;7.25;;;3.47;;
37205;SDS011;23099;42.636;23.198;2023-04-25T00:41:33;7.45;;;3.08;;
37205;SDS011;23099;42.636;23.198;2023-04-25T00:44:01;5.65;;;2.25;;
37205;SDS011;23099;42.636;23.198;2023-04-25T00:46:30;6.85;;;1.77;;
37205;SDS011;23099;42.636;23.198;2023-04-25T00:48:57;5.13;;;1.95;;
37205;SDS011;23099;42.636;23.198;2023-04-25T00:51:24;4.45;;;1.48;;
37205;SDS011;23099;42.636;23.198;2023-04-25T00:53:52;3.47;;;1.27;;
37205;SDS011;23099;42.636;23.198;2023-04-25T00:56:19;3.50;;;1.30;;
37205;SDS011;23099;42.636;23.198;2023-04-25T00:58:48;4.13;;;1.10;;
37205;SDS011;23099;42.636;23.198;2023-04-25T01:01:16;2.80;;;1.05;;
37205;SDS011;23099;42.636;23.198;2023-04-25T01:03:43;2.78;;;1.30;;
37205;SDS011;23099;42.636;23.198;2023-04-25T01:06:12;3.30;;;1.23;;
37205;SDS011;23099;42.636;23.198;2023-04-25T01:08:39;4.13;;;1.10;;
37205;SDS011;23099;42.636;23.198;2023-04-25T01:11:06;2.58;;;1.05;;
37205;SDS011;23099;42.636;23.198;2023-04-25T01:13:33;3.63;;;1.33;;
37205;SDS011;23099;42.636;23.198;2023-04-25T01:16:02;3.95;;;1.30;;
37205;SDS011;23099;42.636;23.198;2023-04-25T01:18:29;3.25;;;1.27;;
37205;SDS011;23099;42.636;23.198;2023-04-25T01:20:56;3.55;;;1.45;;
37205;SDS011;23099;42.636;23.198;2023-04-25T01:23:28;3.35;;;1.38;;
37205;SDS011;23099;42.636;23.198;2023-04-25T01:25:55;3.80;;;1.60;;
37205;SDS011;23099;42.636;23.198;2023-04-25T01:28:22;4.25;;;2.00;;
37205;SDS011;23099;42.636;23.198;2023-04-25T01:30:49;4.63;;;1.88;;
37205;SDS011;23099;42.636;23.198;2023-04-25T01:33:17;4.72;;;2.42;;
37205;SDS011;23099;42.636;23.198;2023-04-25T01:35:47;5.90;;;2.47;;
37205;SDS011;23099;42.636;23.198;2023-04-25T01:38:15;3.75;;;1.95;;
37205;SDS011;23099;42.636;23.198;2023-04-25T01:40:42;4.63;;;2.40;;
37205;SDS011;23099;42.636;23.198;2023-04-25T01:43:11;5.03;;;2.85;;
37205;SDS011;23099;42.636;23.198;2023-04-25T01:45:39;4.18;;;2.20;;
37205;SDS011;23099;42.636;23.198;2023-04-25T01:48:06;5.63;;;2.78;;
37205;SDS011;23099;42.636;23.198;2023-04-25T01:50:33;6.68;;;3.78;;
37205;SDS011;23099;42.636;23.198;2023-04-25T01:53:00;8.70;;;4.03;;
37205;SDS011;23099;42.636;23.198;2023-04-25T01:55:28;8.57;;;4.05;;
37205;SDS011;23099;42.636;23.198;2023-04-25T01:57:55;9.18;;;4.65;;
37205;SDS011;23099;42.636;23.198;2023-04-25T02:00:22;9.85;;;4.85;;
37205;SDS011;23099;42.636;23.198;2023-04-25T02:02:49;10.40;;;5.80;;
37205;SDS011;23099;42.636;23.198;2023-04-25T02:05:18;8.35;;;5.60;;
37205;SDS011;23099;42.636;23.198;2023-04-25T02:07:45;10.02;;;5.80;;
37205;SDS011;23099;42.636;23.198;2023-04-25T02:10:14;13.25;;;6.22;;
37205;SDS011;23099;42.636;23.198;2023-04-25T02:12:42;12.27;;;7.05;;
37205;SDS011;23099;42.636;23.198;2023-04-25T02:15:09;12.00;;;7.45;;
37205;SDS011;23099;42.636;23.198;2023-04-25T02:17:36;14.07;;;8.05;;
37205;SDS011;23099;42.636;23.198;2023-04-25T02:20:04;11.77;;;7.32;;
37205;SDS011;23099;42.636;23.198;2023-04-25T02:22:32;13.50;;;8.18;;
37205;SDS011;23099;42.636;23.198;2023-04-25T02:24:59;12.65;;;7.35;;
37205;SDS011;23099;42.636;23.198;2023-04-25T02:27:25;12.73;;;7.35;;
37205;SDS011;23099;42.636;23.198;2023-04-25T02:29:53;11.38;;;7.65;;
37205;SDS011;23099;42.636;23.198;2023-04-25T02:32:20;12.95;;;7.93;;
37205;SDS011;23099;42.636;23.198;2023-04-25T02:34:47;10.60;;;7.72;;
37205;SDS011;23099;42.636;23.198;2023-04-25T02:37:14;11.10;;;7.80;;
37205;SDS011;23099;42.636;23.198;2023-04-25T02:39:40;13.23;;;8.15;;
37205;SDS011;23099;42.636;23.198;2023-04-25T02:42:07;10.85;;;6.75;;
37205;SDS011;23099;42.636;23.198;2023-04-25T02:44:34;12.18;;;7.25;;
37205;SDS011;23099;42.636;23.198;2023-04-25T02:47:02;14.38;;;7.97;;
37205;SDS011;23099;42.636;23.198;2023-04-25T02:49:28;12.60;;;7.80;;
37205;SDS011;23099;42.636;23.198;2023-04-25T02:51:55;11.80;;;7.97;;
37205;SDS011;23099;42.636;23.198;2023-04-25T02:54:22;13.07;;;7.80;;
37205;SDS011;23099;42.636;23.198;2023-04-25T02:56:48;11.95;;;7.13;;
37205;SDS011;23099;42.636;23.198;2023-04-25T02:59:15;11.40;;;6.78;;
37205;SDS011;23099;42.636;23.198;2023-04-25T03:01:42;11.32;;;7.03;;
37205;SDS011;23099;42.636;23.198;2023-04-25T03:04:10;13.02;;;7.93;;
37205;SDS011;23099;42.636;23.198;2023-04-25T03:06:37;10.57;;;7.22;;
37205;SDS011;23099;42.636;23.198;2023-04-25T03:09:03;12.20;;;7.30;;
37205;SDS011;23099;42.636;23.198;2023-04-25T03:11:30;13.45;;;7.85;;
37205;SDS011;23099;42.636;23.198;2023-04-25T03:13:57;14.20;;;8.13;;
37205;SDS011;23099;42.636;23.198;2023-04-25T03:16:23;13.45;;;8.30;;
37205;SDS011;23099;42.636;23.198;2023-04-25T03:18:51;13.82;;;8.27;;
37205;SDS011;23099;42.636;23.198;2023-04-25T03:21:19;11.07;;;7.15;;
37205;SDS011;23099;42.636;23.198;2023-04-25T03:23:45;11.63;;;7.47;;
37205;SDS011;23099;42.636;23.198;2023-04-25T03:26:12;14.52;;;7.90;;
37205;SDS011;23099;42.636;23.198;2023-04-25T03:28:39;14.60;;;7.10;;
37205;SDS011;23099;42.636;23.198;2023-04-25T03:31:05;11.80;;;6.70;;
37205;SDS011;23099;42.636;23.198;2023-04-25T03:33:32;11.02;;;7.15;;
37205;SDS011;23099;42.636;23.198;2023-04-25T03:35:59;12.50;;;8.10;;
37205;SDS011;23099;42.636;23.198;2023-04-25T03:38:27;12.98;;;7.50;;
37205;SDS011;23099;42.636;23.198;2023-04-25T03:40:54;12.32;;;6.90;;
37205;SDS011;23099;42.636;23.198;2023-04-25T03:43:21;11.55;;;7.63;;
37205;SDS011;23099;42.636;23.198;2023-04-25T03:45:48;12.38;;;7.90;;
37205;SDS011;23099;42.636;23.198;2023-04-25T03:48:14;13.25;;;7.28;;
37205;SDS011;23099;42.636;23.198;2023-04-25T03:50:41;14.43;;;7.28;;
37205;SDS011;23099;42.636;23.198;2023-04-25T03:53:08;12.93;;;7.15;;
37205;SDS011;23099;42.636;23.198;2023-04-25T03:55:36;11.77;;;7.03;;
37205;SDS011;23099;42.636;23.198;2023-04-25T03:58:03;12.90;;;6.03;;
37205;SDS011;23099;42.636;23.198;2023-04-25T04:00:30;11.45;;;6.82;;
37205;SDS011;23099;42.636;23.198;2023-04-25T04:02:56;9.80;;;5.97;;
37205;SDS011;23099;42.636;23.198;2023-04-25T04:05:23;12.15;;;5.65;;
37205;SDS011;23099;42.636;23.198;2023-04-25T04:07:50;15.38;;;5.93;;
37205;SDS011;23099;42.636;23.198;2023-04-25T04:10:16;11.38;;;6.50;;
37205;SDS011;23099;42.636;23.198;2023-04-25T04:12:45;13.93;;;6.82;;
37205;SDS011;23099;42.636;23.198;2023-04-25T04:15:11;12.23;;;6.93;;
37205;SDS011;23099;42.636;23.198;2023-04-25T04:17:38;11.75;;;6.75;;
37205;SDS011;23099;42.636;23.198;2023-04-25T04:20:06;12.35;;;7.60;;
37205;SDS011;23099;42.636;23.198;2023-04-25T04:22:33;14.07;;;6.60;;
37205;SDS011;23099;42.636;23.198;2023-04-25T04:25:01;12.80;;;6.47;;
37205;SDS011;23099;42.636;23.198;2023-04-25T04:27:29;13.98;;;6.90;;
37205;SDS011;23099;42.636;23.198;2023-04-25T04:29:57;14.00;;;6.78;;
37205;SDS011;23099;42.636;23.198;2023-04-25T04:32:24;13.48;;;6.97;;
37205;SDS011;23099;42.636;23.198;2023-04-25T04:34:52;9.07;;;5.53;;
37205;SDS011;23099;42.636;23.198;2023-04-25T04:37:19;10.95;;;6.15;;
37205;SDS011;23099;42.636;23.198;2023-04-25T04:39:46;9.00;;;5.40;;
37205;SDS011;23099;42.636;23.198;2023-04-25T04:42:13;10.45;;;5.68;;
37205;SDS011;23099;42.636;23.198;2023-04-25T04:44:40;9.77;;;5.10;;
37205;SDS011;23099;42.636;23.198;2023-04-25T04:47:10;10.30;;;5.25;;
37205;SDS011;23099;42.636;23.198;2023-04-25T04:49:37;8.20;;;4.80;;
37205;SDS011;23099;42.636;23.198;2023-04-25T04:52:04;6.85;;;3.97;;
37205;SDS011;23099;42.636;23.198;2023-04-25T04:54:31;8.48;;;4.00;;
37205;SDS011;23099;42.636;23.198;2023-04-25T04:57:00;8.43;;;4.55;;
37205;SDS011;23099;42.636;23.198;2023-04-25T04:59:27;7.50;;;4.35;;
37205;SDS011;23099;42.636;23.198;2023-04-25T05:01:53;10.07;;;4.80;;
37205;SDS011;23099;42.636;23.198;2023-04-25T05:04:21;9.57;;;4.47;;
37205;SDS011;23099;42.636;23.198;2023-04-25T05:06:48;6.45;;;3.72;;
37205;SDS011;23099;42.636;23.198;2023-04-25T05:09:15;6.60;;;3.17;;
37205;SDS011;23099;42.636;23.198;2023-04-25T05:11:41;5.13;;;2.75;;
37205;SDS011;23099;42.636;23.198;2023-04-25T05:14:08;7.28;;;3.75;;
37205;SDS011;23099;42.636;23.198;2023-04-25T05:16:35;9.82;;;4.20;;
37205;SDS011;23099;42.636;23.198;2023-04-25T05:19:01;12.65;;;4.90;;
37205;SDS011;23099;42.636;23.198;2023-04-25T05:21:29;9.95;;;5.25;;
37205;SDS011;23099;42.636;23.198;2023-04-25T05:23:56;10.55;;;5.13;;
37205;SDS011;23099;42.636;23.198;2023-04-25T05:26:23;7.43;;;3.28;;
37205;SDS011;23099;42.636;23.198;2023-04-25T05:28:49;8.23;;;3.08;;
37205;SDS011;23099;42.636;23.198;2023-04-25T05:31:17;7.43;;;3.05;;
37205;SDS011;23099;42.636;23.198;2023-04-25T05:33:43;6.35;;;2.67;;
37205;SDS011;23099;42.636;23.198;2023-04-25T05:36:10;5.45;;;2.20;;
37205;SDS011;23099;42.636;23.198;2023-04-25T05:38:38;6.80;;;2.88;;
37205;SDS011;23099;42.636;23.198;2023-04-25T05:41:05;7.50;;;2.80;;
37205;SDS011;23099;42.636;23.198;2023-04-25T05:43:32;7.90;;;4.05;;
37205;SDS011;23099;42.636;23.198;2023-04-25T05:45:59;12.65;;;4.28;;
37205;SDS011;23099;42.636;23.198;2023-04-25T05:48:25;8.02;;;3.67;;
37205;SDS011;23099;42.636;23.198;2023-04-25T05:50:52;11.30;;;5.07;;
37205;SDS011;23099;42.636;23.198;2023-04-25T05:53:19;7.90;;;4.22;;
37205;SDS011;23099;42.636;23.198;2023-04-25T05:55:47;7.97;;;4.57;;
37205;SDS011;23099;42.636;23.198;2023-04-25T05:58:14;17.35;;;8.13;;
37205;SDS011;23099;42.636;23.198;2023-04-25T06:00:40;20.58;;;8.50;;
37205;SDS011;23099;42.636;23.198;2023-04-25T06:03:07;11.65;;;4.68;;
37205;SDS011;23099;42.636;23.198;2023-04-25T06:05:35;12.13;;;5.20;;
37205;SDS011;23099;42.636;23.198;2023-04-25T06:08:01;24.35;;;10.80;;
37205;SDS011;23099;42.636;23.198;2023-04-25T06:10:28;11.30;;;5.78;;
37205;SDS011;23099;42.636;23.198;2023-04-25T06:12:56;7.72;;;3.58;;
37205;SDS011;23099;42.636;23.198;2023-04-25T06:15:23;15.40;;;6.00;;
37205;SDS011;23099;42.636;23.198;2023-04-25T06:17:50;7.35;;;4.15;;
37205;SDS011;23099;42.636;23.198;2023-04-25T06:20:16;10.20;;;5.70;;
37205;SDS011;23099;42.636;23.198;2023-04-25T06:22:44;9.25;;;4.00;;
37205;SDS011;23099;42.636;23.198;2023-04-25T06:25:11;6.13;;;2.15;;
37205;SDS011;23099;42.636;23.198;2023-04-25T06:27:38;6.47;;;2.88;;
37205;SDS011;23099;42.636;23.198;2023-04-25T06:30:06;7.63;;;3.15;;
37205;SDS011;23099;42.636;23.198;2023-04-25T06:32:34;6.03;;;3.00;;
37205;SDS011;23099;42.636;23.198;2023-04-25T06:35:01;5.78;;;3.67;;
37205;SDS011;23099;42.636;23.198;2023-04-25T06:37:28;6.38;;;2.95;;
37205;SDS011;23099;42.636;23.198;2023-04-25T06:39:55;4.95;;;2.33;;
37205;SDS011;23099;42.636;23.198;2023-04-25T06:42:21;5.47;;;2.50;;
37205;SDS011;23099;42.636;23.198;2023-04-25T06:44:48;7.15;;;2.35;;
37205;SDS011;23099;42.636;23.198;2023-04-25T06:47:16;4.82;;;2.20;;
37205;SDS011;23099;42.636;23.198;2023-04-25T06:49:43;5.57;;;1.90;;
37205;SDS011;23099;42.636;23.198;2023-04-25T06:52:09;4.97;;;2.25;;
37205;SDS011;23099;42.636;23.198;2023-04-25T06:54:36;5.95;;;2.63;;
37205;SDS011;23099;42.636;23.198;2023-04-25T06:57:03;5.13;;;2.40;;
37205;SDS011;23099;42.636;23.198;2023-04-25T06:59:30;5.78;;;2.30;;
37205;SDS011;23099;42.636;23.198;2023-04-25T07:01:57;5.65;;;2.72;;
37205;SDS011;23099;42.636;23.198;2023-04-25T07:04:26;7.40;;;3.10;;
37205;SDS011;23099;42.636;23.198;2023-04-25T07:06:52;4.90;;;2.70;;
37205;SDS011;23099;42.636;23.198;2023-04-25T07:09:19;6.07;;;2.72;;
37205;SDS011;23099;42.636;23.198;2023-04-25T07:11:46;7.93;;;2.72;;
37205;SDS011;23099;42.636;23.198;2023-04-25T07:14:13;8.63;;;2.90;;
37205;SDS011;23099;42.636;23.198;2023-04-25T07:16:40;5.28;;;2.00;;
37205;SDS011;23099;42.636;23.198;2023-04-25T07:19:06;5.20;;;2.63;;
37205;SDS011;23099;42.636;23.198;2023-04-25T07:21:34;6.90;;;2.35;;
37205;SDS011;23099;42.636;23.198;2023-04-25T07:24:01;5.60;;;2.17;;
37205;SDS011;23099;42.636;23.198;2023-04-25T07:26:28;7.03;;;2.33;;
37205;SDS011;23099;42.636;23.198;2023-04-25T07:28:55;9.23;;;2.40;;
37205;SDS011;23099;42.636;23.198;2023-04-25T07:31:21;4.75;;;2.42;;
37205;SDS011;23099;42.636;23.198;2023-04-25T07:33:48;5.55;;;1.60;;
37205;SDS011;23099;42.636;23.198;2023-04-25T07:36:15;3.55;;;1.58;;
37205;SDS011;23099;42.636;23.198;2023-04-25T07:38:43;4.53;;;1.75;;
37205;SDS011;23099;42.636;23.198;2023-04-25T07:41:10;4.13;;;1.58;;
37205;SDS011;23099;42.636;23.198;2023-04-25T07:43:36;6.72;;;2.20;;
37205;SDS011;23099;42.636;23.198;2023-04-25T07:46:03;5.20;;;2.17;;
37205;SDS011;23099;42.636;23.198;2023-04-25T07:48:30;5.78;;;1.92;;
37205;SDS011;23099;42.636;23.198;2023-04-25T07:50:57;4.00;;;1.80;;
37205;SDS011;23099;42.636;23.198;2023-04-25T07:53:23;4.32;;;1.00;;
37205;SDS011;23099;42.636;23.198;2023-04-25T07:55:52;4.35;;;1.73;;
37205;SDS011;23099;42.636;23.198;2023-04-25T07:58:18;4.70;;;1.70;;
37205;SDS011;23099;42.636;23.198;2023-04-25T08:00:47;6.05;;;1.50;;
37205;SDS011;23099;42.636;23.198;2023-04-25T08:03:13;5.00;;;0.90;;
37205;SDS011;23099;42.636;23.198;2023-04-25T08:05:40;3.40;;;0.82;;
37205;SDS011;23099;42.636;23.198;2023-04-25T08:08:07;5.97;;;1.52;;
37205;SDS011;23099;42.636;23.198;2023-04-25T08:10:33;3.63;;;0.95;;
37205;SDS011;23099;42.636;23.198;2023-04-25T08:13:02;3.58;;;0.80;;
37205;SDS011;23099;42.636;23.198;2023-04-25T08:15:28;2.00;;;0.63;;
37205;SDS011;23099;42.636;23.198;2023-04-25T08:17:55;3.78;;;0.90;;
37205;SDS011;23099;42.636;23.198;2023-04-25T08:20:22;3.92;;;0.90;;
37205;SDS011;23099;42.636;23.198;2023-04-25T08:22:48;5.70;;;0.90;;
37205;SDS011;23099;42.636;23.198;2023-04-25T08:25:15;3.13;;;0.85;;
37205;SDS011;23099;42.636;23.198;2023-04-25T08:27:42;2.22;;;0.80;;
37205;SDS011;23099;42.636;23.198;2023-04-25T08:30:11;2.70;;;1.00;;
37205;SDS011;23099;42.636;23.198;2023-04-25T08:32:38;3.13;;;1.10;;
37205;SDS011;23099;42.636;23.198;2023-04-25T08:35:05;4.20;;;1.17;;
37205;SDS011;23099;42.636;23.198;2023-04-25T08:37:32;2.17;;;0.90;;
37205;SDS011;23099;42.636;23.198;2023-04-25T08:39:58;2.90;;;0.80;;
37205;SDS011;23099;42.636;23.198;2023-04-25T08:42:26;3.63;;;0.80;;
37205;SDS011;23099;42.636;23.198;2023-04-25T08:44:54;2.88;;;0.60;;
37205;SDS011;23099;42.636;23.198;2023-04-25T08:47:23;1.88;;;0.55;;
37205;SDS011;23099;42.636;23.198;2023-04-25T08:49:52;2.33;;;0.60;;
37205;SDS011;23099;42.636;23.198;2023-04-25T08:52:21;1.80;;;0.50;;
37205;SDS011;23099;42.636;23.198;2023-04-25T08:54:49;3.28;;;0.50;;
37205;SDS011;23099;42.636;23.198;2023-04-25T08:57:17;3.95;;;0.40;;
37205;SDS011;23099;42.636;23.198;2023-04-25T08:59:45;3.03;;;0.60;;
37205;SDS011;23099;42.636;23.198;2023-04-25T09:02:13;2.20;;;0.70;;
37205;SDS011;23099;42.636;23.198;2023-04-25T09:04:43;2.70;;;0.70;;
37205;SDS011;23099;42.636;23.198;2023-04-25T09:07:10;2.95;;;0.68;;
37205;SDS011;23099;42.636;23.198;2023-04-25T09:09:37;1.75;;;0.60;;
37205;SDS011;23099;42.636;23.198;2023-04-25T09:12:05;3.33;;;0.60;;
37205;SDS011;23099;42.636;23.198;2023-04-25T09:14:31;2.33;;;0.70;;
37205;SDS011;23099;42.636;23.198;2023-04-25T09:16:59;3.35;;;0.60;;
37205;SDS011;23099;42.636;23.198;2023-04-25T09:19:28;3.20;;;0.60;;
37205;SDS011;23099;42.636;23.198;2023-04-25T09:21:57;3.65;;;0.90;;
37205;SDS011;23099;42.636;23.198;2023-04-25T09:24:35;0.93;;;0.35;;
37205;SDS011;23099;42.636;23.198;2023-04-25T09:27:03;1.48;;;0.47;;
37205;SDS011;23099;42.636;23.198;2023-04-25T09:29:31;1.85;;;0.50;;
37205;SDS011;23099;42.636;23.198;2023-04-25T09:32:11;2.55;;;0.60;;
37205;SDS011;23099;42.636;23.198;2023-04-25T09:34:42;3.00;;;0.70;;
37205;SDS011;23099;42.636;23.198;2023-04-25T09:37:11;4.28;;;0.60;;
37205;SDS011;23099;42.636;23.198;2023-04-25T09:39:38;3.35;;;0.60;;
37205;SDS011;23099;42.636;23.198;2023-04-25T09:42:05;1.73;;;0.40;;
37205;SDS011;23099;42.636;23.198;2023-04-25T09:44:32;2.17;;;0.47;;
37205;SDS011;23099;42.636;23.198;2023-04-25T09:46:58;2.13;;;0.43;;
37205;SDS011;23099;42.636;23.198;2023-04-25T09:49:25;1.80;;;0.50;;
37205;SDS011;23099;42.636;23.198;2023-04-25T09:51:56;1.70;;;0.22;;
37205;SDS011;23099;42.636;23.198;2023-04-25T09:54:25;1.95;;;0.40;;
37205;SDS011;23099;42.636;23.198;2023-04-25T09:56:52;2.33;;;0.40;;
37205;SDS011;23099;42.636;23.198;2023-04-25T09:59:20;1.42;;;0.30;;
37205;SDS011;23099;42.636;23.198;2023-04-25T10:01:48;4.72;;;0.57;;
37205;SDS011;23099;42.636;23.198;2023-04-25T10:04:16;2.20;;;0.50;;
37205;SDS011;23099;42.636;23.198;2023-04-25T10:06:49;1.98;;;0.43;;
37205;SDS011;23099;42.636;23.198;2023-04-25T10:09:18;5.75;;;1.05;;
37205;SDS011;23099;42.636;23.198;2023-04-25T10:11:49;6.10;;;1.33;;
37205;SDS011;23099;42.636;23.198;2023-04-25T10:14:16;1.13;;;0.30;;
37205;SDS011;23099;42.636;23.198;2023-04-25T10:16:44;1.80;;;0.40;;
37205;SDS011;23099;42.636;23.198;2023-04-25T10:19:11;2.53;;;0.50;;
37205;SDS011;23099;42.636;23.198;2023-04-25T10:21:40;3.45;;;0.43;;
37205;SDS011;23099;42.636;23.198;2023-04-25T10:24:14;1.63;;;0.30;;
37205;SDS011;23099;42.636;23.198;2023-04-25T10:26:41;0.52;;;0.20;;
37205;SDS011;23099;42.636;23.198;2023-04-25T10:29:09;1.67;;;0.30;;
37205;SDS011;23099;42.636;23.198;2023-04-25T10:31:44;3.22;;;0.40;;
37205;SDS011;23099;42.636;23.198;2023-04-25T10:34:12;3.28;;;0.40;;
37205;SDS011;23099;42.636;23.198;2023-04-25T10:36:38;2.03;;;0.20;;
37205;SDS011;23099;42.636;23.198;2023-04-25T10:39:05;2.67;;;0.40;;
37205;SDS011;23099;42.636;23.198;2023-04-25T10:41:45;1.25;;;0.30;;
37205;SDS011;23099;42.636;23.198;2023-04-25T10:44:14;2.67;;;0.43;;
37205;SDS011;23099;42.636;23.198;2023-04-25T10:46:41;2.83;;;0.30;;
37205;SDS011;23099;42.636;23.198;2023-04-25T10:49:10;2.80;;;0.30;;
37205;SDS011;23099;42.636;23.198;2023-04-25T10:52:04;6.25;;;0.90;;
37205;SDS011;23099;42.636;23.198;2023-04-25T10:54:40;7.35;;;1.13;;
37205;SDS011;23099;42.636;23.198;2023-04-25T10:57:07;5.25;;;0.80;;
37205;SDS011;23099;42.636;23.198;2023-04-25T10:59:35;3.70;;;0.73;;
37205;SDS011;23099;42.636;23.198;2023-04-25T11:02:02;5.80;;;0.60;;
37205;SDS011;23099;42.636;23.198;2023-04-25T11:04:39;3.45;;;0.70;;
37205;SDS011;23099;42.636;23.198;2023-04-25T11:07:08;2.30;;;0.50;;
37205;SDS011;23099;42.636;23.198;2023-04-25T11:09:46;3.35;;;0.60;;
37205;SDS011;23099;42.636;23.198;2023-04-25T11:12:13;5.80;;;0.80;;
37205;SDS011;23099;42.636;23.198;2023-04-25T11:14:41;4.10;;;0.70;;
37205;SDS011;23099;42.636;23.198;2023-04-25T11:17:08;2.83;;;0.50;;
37205;SDS011;23099;42.636;23.198;2023-04-25T11:19:35;2.53;;;0.60;;
37205;SDS011;23099;42.636;23.198;2023-04-25T11:22:02;2.42;;;0.50;;
37205;SDS011;23099;42.636;23.198;2023-04-25T11:24:30;3.10;;;0.80;;
37205;SDS011;23099;42.636;23.198;2023-04-25T11:26:59;3.80;;;0.60;;
37205;SDS011;23099;42.636;23.198;2023-04-25T11:29:28;3.92;;;0.50;;
37205;SDS011;23099;42.636;23.198;2023-04-25T11:31:56;5.10;;;0.70;;
37205;SDS011;23099;42.636;23.198;2023-04-25T11:34:23;4.97;;;0.70;;
37205;SDS011;23099;42.636;23.198;2023-04-25T11:36:51;3.47;;;0.60;;
37205;SDS011;23099;42.636;23.198;2023-04-25T11:39:18;2.55;;;0.38;;
37205;SDS011;23099;42.636;23.198;2023-04-25T11:41:45;2.22;;;0.40;;
37205;SDS011;23099;42.636;23.198;2023-04-25T11:44:15;2.40;;;0.50;;
37205;SDS011;23099;42.636;23.198;2023-04-25T11:46:42;6.47;;;0.73;;
37205;SDS011;23099;42.636;23.198;2023-04-25T11:49:10;3.25;;;0.60;;
37205;SDS011;23099;42.636;23.198;2023-04-25T11:54:04;8.20;;;1.33;;
37205;SDS011;23099;42.636;23.198;2023-04-25T11:56:31;4.60;;;1.55;;
37205;SDS011;23099;42.636;23.198;2023-04-25T11:58:59;4.35;;;0.70;;
37205;SDS011;23099;42.636;23.198;2023-04-25T12:01:27;2.88;;;0.40;;
37205;SDS011;23099;42.636;23.198;2023-04-25T12:03:55;1.83;;;0.40;;
37205;SDS011;23099;42.636;23.198;2023-04-25T12:06:27;2.42;;;0.30;;
37205;SDS011;23099;42.636;23.198;2023-04-25T12:09:01;2.05;;;0.50;;
37205;SDS011;23099;42.636;23.198;2023-04-25T12:11:29;4.88;;;0.70;;
37205;SDS011;23099;42.636;23.198;2023-04-25T12:16:27;1.13;;;0.40;;
37205;SDS011;23099;42.636;23.198;2023-04-25T12:18:55;1.00;;;0.30;;
37205;SDS011;23099;42.636;23.198;2023-04-25T12:21:22;1.65;;;0.30;;
37205;SDS011;23099;42.636;23.198;2023-04-25T12:23:50;1.92;;;0.45;;
37205;SDS011;23099;42.636;23.198;2023-04-25T12:26:18;1.63;;;0.40;;
37205;SDS011;23099;42.636;23.198;2023-04-25T12:28:45;2.70;;;0.50;;
37205;SDS011;23099;42.636;23.198;2023-04-25T12:31:13;1.00;;;0.30;;
37205;SDS011;23099;42.636;23.198;2023-04-25T12:33:41;1.83;;;0.40;;
37205;SDS011;23099;42.636;23.198;2023-04-25T12:36:12;1.27;;;0.20;;
37205;SDS011;23099;42.636;23.198;2023-04-25T12:56:35;1.13;;;0.30;;
37205;SDS011;23099;42.636;23.198;2023-04-25T13:01:29;1.73;;;0.38;;
37205;SDS011;23099;42.636;23.198;2023-04-25T13:03:57;2.65;;;0.40;;
37205;SDS011;23099;42.636;23.198;2023-04-25T13:06:23;2.38;;;0.63;;
37205;SDS011;23099;42.636;23.198;2023-04-25T13:08:51;4.25;;;0.60;;
37205;SDS011;23099;42.636;23.198;2023-04-25T13:11:18;2.10;;;0.50;;
37205;SDS011;23099;42.636;23.198;2023-04-25T13:13:46;2.80;;;0.60;;
37205;SDS011;23099;42.636;23.198;2023-04-25T13:16:13;2.95;;;0.45;;
37205;SDS011;23099;42.636;23.198;2023-04-25T13:18:40;3.92;;;0.70;;
37205;SDS011;23099;42.636;23.198;2023-04-25T13:21:07;11.65;;;1.40;;
37205;SDS011;23099;42.636;23.198;2023-04-25T13:23:35;3.45;;;0.57;;
37205;SDS011;23099;42.636;23.198;2023-04-25T13:26:02;4.15;;;0.50;;
37205;SDS011;23099;42.636;23.198;2023-04-25T13:28:29;3.50;;;0.57;;
37205;SDS011;23099;42.636;23.198;2023-04-25T13:30:57;7.50;;;0.80;;
37205;SDS011;23099;42.636;23.198;2023-04-25T13:33:24;4.25;;;0.50;;
37205;SDS011;23099;42.636;23.198;2023-04-25T13:35:51;5.97;;;1.05;;
37205;SDS011;23099;42.636;23.198;2023-04-25T13:38:21;11.77;;;2.28;;
37205;SDS011;23099;42.636;23.198;2023-04-25T13:40:48;3.88;;;0.90;;
37205;SDS011;23099;42.636;23.198;2023-04-25T13:43:17;3.28;;;0.80;;
37205;SDS011;23099;42.636;23.198;2023-04-25T13:45:45;4.43;;;0.70;;
37205;SDS011;23099;42.636;23.198;2023-04-25T13:48:13;3.05;;;0.80;;
37205;SDS011;23099;42.636;23.198;2023-04-25T13:50:40;4.10;;;0.77;;
37205;SDS011;23099;42.636;23.198;2023-04-25T13:53:06;2.65;;;0.40;;
37205;SDS011;23099;42.636;23.198;2023-04-25T13:55:33;3.92;;;0.43;;
37205;SDS011;23099;42.636;23.198;2023-04-25T13:58:00;2.55;;;0.30;;
37205;SDS011;23099;42.636;23.198;2023-04-25T14:00:32;3.22;;;0.30;;
37205;SDS011;23099;42.636;23.198;2023-04-25T14:02:59;1.67;;;0.50;;
37205;SDS011;23099;42.636;23.198;2023-04-25T14:05:31;2.75;;;0.52;;
37205;SDS011;23099;42.636;23.198;2023-04-25T14:08:00;1.85;;;0.50;;
37205;SDS011;23099;42.636;23.198;2023-04-25T14:10:26;1.48;;;0.50;;
37205;SDS011;23099;42.636;23.198;2023-04-25T14:12:53;1.35;;;0.50;;
37205;SDS011;23099;42.636;23.198;2023-04-25T14:15:19;2.33;;;0.60;;
37205;SDS011;23099;42.636;23.198;2023-04-25T14:17:46;4.10;;;0.68;;
37205;SDS011;23099;42.636;23.198;2023-04-25T14:20:13;3.53;;;0.70;;
37205;SDS011;23099;42.636;23.198;2023-04-25T14:22:41;2.63;;;0.70;;
37205;SDS011;23099;42.636;23.198;2023-04-25T14:27:35;3.65;;;0.70;;
37205;SDS011;23099;42.636;23.198;2023-04-25T14:30:02;2.60;;;0.70;;
37205;SDS011;23099;42.636;23.198;2023-04-25T14:32:29;3.05;;;0.40;;
37205;SDS011;23099;42.636;23.198;2023-04-25T14:34:57;4.28;;;0.60;;
37205;SDS011;23099;42.636;23.198;2023-04-25T14:37:24;2.67;;;0.60;;
37205;SDS011;23099;42.636;23.198;2023-04-25T14:39:52;1.77;;;0.40;;
37205;SDS011;23099;42.636;23.198;2023-04-25T14:42:18;2.63;;;0.50;;
37205;SDS011;23099;42.636;23.198;2023-04-25T14:44:45;2.53;;;0.65;;
37205;SDS011;23099;42.636;23.198;2023-04-25T14:47:12;3.15;;;0.93;;
37205;SDS011;23099;42.636;23.198;2023-04-25T14:49:39;4.25;;;1.17;;
37205;SDS011;23099;42.636;23.198;2023-04-25T14:52:05;4.13;;;0.60;;
37205;SDS011;23099;42.636;23.198;2023-04-25T14:54:32;1.92;;;0.50;;
37205;SDS011;23099;42.636;23.198;2023-04-25T14:57:00;2.85;;;0.80;;
37205;SDS011;23099;42.636;23.198;2023-04-25T14:59:28;6.22;;;0.80;;
37205;SDS011;23099;42.636;23.198;2023-04-25T15:01:55;6.35;;;0.70;;